createdAt,value
2023-04-02T00:00:19.129Z,4.22
2023-04-02T00:05:51.240Z,3.80
2023-04-02T00:10:55.853Z,4.15
2023-04-02T00:16:00.637Z,4.32
2023-04-02T00:21:13.741Z,3.63
2023-04-02T00:26:33.070Z,4.20
2023-04-02T00:31:41.292Z,3.97
2023-04-02T00:36:47.261Z,3.22
2023-04-02T00:41:55.132Z,3.47
2023-04-02T00:46:58.070Z,3.17
2023-04-02T00:52:06.776Z,3.30
2023-04-02T00:57:18.505Z,3.50
2023-04-02T01:02:28.592Z,3.90
2023-04-02T01:08:05.961Z,4.18
2023-04-02T01:13:21.232Z,4.80
2023-04-02T01:18:36.248Z,5.05
2023-04-02T01:23:54.681Z,4.05
2023-04-02T01:29:05.124Z,3.70
2023-04-02T01:34:11.348Z,3.70
2023-04-02T01:39:26.974Z,3.92
2023-04-02T01:44:38.218Z,4.35
2023-04-02T01:49:43.524Z,4.57
2023-04-02T01:54:47.964Z,5.55
2023-04-02T01:59:53.029Z,4.70
2023-04-02T02:04:55.808Z,4.07
2023-04-02T02:09:58.919Z,5.05
2023-04-02T02:15:03.555Z,3.92
2023-04-02T02:20:11.391Z,4.13
2023-04-02T02:25:17.543Z,3.65
2023-04-02T02:30:26.302Z,2.88
2023-04-02T02:35:34.482Z,3.03
2023-04-02T02:40:46.330Z,2.88
2023-04-02T02:45:51.496Z,3.20
2023-04-02T02:50:55.874Z,2.67
2023-04-02T02:56:02.416Z,2.85
2023-04-02T03:01:13.929Z,2.35
2023-04-02T03:06:21.125Z,2.33
2023-04-02T03:11:36.619Z,2.53
2023-04-02T03:16:48.877Z,2.50
2023-04-02T03:21:55.644Z,2.20
2023-04-02T03:27:03.456Z,1.58
2023-04-02T03:32:13.303Z,1.70
2023-04-02T03:37:21.250Z,1.38
2023-04-02T03:42:26.328Z,1.33
2023-04-02T03:47:38.225Z,1.70
2023-04-02T03:52:40.859Z,1.95
2023-04-02T03:57:55.892Z,2.33
2023-04-02T04:03:11.242Z,1.65
2023-04-02T04:08:19.131Z,2.22
2023-04-02T04:13:27.560Z,2.20
2023-04-02T04:18:38.401Z,2.38
2023-04-02T04:23:52.057Z,2.35
2023-04-02T04:29:06.561Z,2.47
2023-04-02T04:34:17.946Z,2.70
2023-04-02T04:39:24.165Z,2.70
2023-04-02T04:44:37.043Z,3.90
2023-04-02T04:49:46.895Z,3.65
2023-04-02T04:54:51.394Z,3.15
2023-04-02T05:00:06.416Z,3.25
2023-04-02T05:05:19.842Z,2.42
2023-04-02T05:10:32.015Z,2.78
2023-04-02T05:15:42.451Z,2.70
2023-04-02T05:20:55.196Z,3.03
2023-04-02T05:26:07.237Z,3.00
2023-04-02T05:31:13.970Z,2.92
2023-04-02T05:36:25.386Z,2.60
2023-04-02T05:41:37.343Z,3.38
2023-04-02T05:46:47.785Z,3.38
2023-04-02T05:51:57.587Z,3.78
2023-04-02T05:57:05.027Z,3.90
2023-04-02T06:02:19.381Z,3.80
2023-04-02T06:07:26.059Z,3.63
2023-04-02T06:12:39.418Z,4.50
2023-04-02T06:17:49.233Z,4.88
2023-04-02T06:22:57.540Z,4.40
2023-04-02T06:28:03.502Z,4.85
2023-04-02T06:33:06.465Z,5.15
2023-04-02T06:38:20.864Z,4.50
2023-04-02T06:43:33.673Z,4.10
2023-04-02T06:49:06.309Z,3.13
2023-04-02T06:54:16.978Z,3.10
2023-04-02T06:59:22.892Z,2.90
2023-04-02T07:04:25.268Z,3.17
2023-04-02T07:09:30.220Z,3.33
2023-04-02T07:14:35.260Z,3.10
2023-04-02T07:19:36.402Z,2.88
2023-04-02T07:24:38.564Z,3.33
2023-04-02T07:29:42.814Z,3.10
2023-04-02T07:34:43.877Z,3.05
2023-04-02T07:39:46.429Z,2.55
2023-04-02T07:44:58.773Z,2.72
2023-04-02T07:49:59.665Z,2.72
2023-04-02T07:55:02.909Z,3.70
2023-04-02T08:00:07.612Z,2.90
2023-04-02T08:05:18.110Z,2.83
2023-04-02T08:10:22.524Z,3.10
2023-04-02T08:15:24.279Z,3.05
2023-04-02T08:20:28.722Z,3.08
2023-04-02T08:25:31.085Z,2.92
2023-04-02T08:30:32.477Z,3.45
2023-04-02T08:35:34.259Z,2.50
2023-04-02T08:40:41.185Z,2.90
2023-04-02T08:45:51.487Z,3.63
2023-04-02T08:50:52.870Z,3.28
2023-04-02T08:56:03.854Z,2.95
2023-04-02T09:01:09.155Z,2.83
2023-04-02T09:06:16.554Z,2.50
2023-04-02T09:11:25.423Z,2.30
2023-04-02T09:16:43.537Z,2.00
2023-04-02T09:21:47.225Z,1.77
2023-04-02T09:26:49.638Z,1.75
2023-04-02T09:32:00.637Z,2.20
2023-04-02T09:37:09.805Z,2.10
2023-04-02T09:42:31.944Z,2.00
2023-04-02T09:47:34.011Z,2.70
2023-04-02T09:52:36.468Z,2.47
2023-04-02T09:57:39.014Z,1.60
2023-04-02T10:02:41.481Z,2.10
2023-04-02T10:07:46.094Z,2.15
2023-04-02T10:12:51.889Z,2.25
2023-04-02T10:18:01.521Z,2.13
2023-04-02T10:23:04.899Z,2.78
2023-04-02T10:28:25.103Z,1.90
2023-04-02T10:33:31.539Z,2.17
2023-04-02T10:38:43.904Z,1.70
2023-04-02T10:44:18.908Z,1.70
2023-04-02T10:49:32.445Z,2.03
2023-04-02T10:54:42.551Z,1.52
2023-04-02T10:59:50.324Z,2.22
2023-04-02T11:04:52.251Z,1.55
2023-04-02T11:09:58.003Z,1.38
2023-04-02T11:15:00.843Z,1.95
2023-04-02T11:20:43.356Z,1.80
2023-04-02T11:25:45.015Z,2.03
2023-04-02T11:30:49.815Z,1.90
2023-04-02T11:35:51.305Z,2.70
2023-04-02T11:40:54.806Z,1.98
2023-04-02T11:46:00.224Z,2.25
2023-04-02T11:51:04.924Z,2.30
2023-04-02T11:56:21.986Z,2.97
2023-04-02T12:01:53.575Z,2.47
2023-04-02T12:07:26.826Z,2.30
2023-04-02T12:12:32.806Z,2.25
2023-04-02T12:17:37.276Z,2.38
2023-04-02T12:22:41.829Z,2.10
2023-04-02T12:27:46.379Z,1.70
2023-04-02T12:32:50.963Z,2.33
2023-04-02T12:37:53.894Z,2.33
2023-04-02T12:42:55.320Z,1.90
2023-04-02T12:47:58.901Z,1.92
2023-04-02T12:53:01.801Z,2.08
2023-04-02T12:58:05.120Z,2.38
2023-04-02T13:03:22.564Z,2.67
2023-04-02T13:08:27.320Z,1.95
2023-04-02T13:13:31.347Z,2.17
2023-04-02T13:18:36.140Z,1.35
2023-04-02T13:23:38.527Z,1.73
2023-04-02T13:28:39.556Z,1.73
2023-04-02T13:33:42.490Z,1.40
2023-04-02T13:38:46.553Z,2.08
2023-04-02T13:43:50.860Z,1.60
2023-04-02T13:48:56.834Z,1.63
2023-04-02T13:54:00.100Z,1.52
2023-04-02T13:59:02.908Z,1.58
2023-04-02T14:04:06.368Z,1.52
2023-04-02T14:09:18.788Z,1.52
2023-04-02T14:14:33.168Z,1.75
2023-04-02T14:19:49.739Z,1.77
2023-04-02T14:25:02.168Z,1.20
2023-04-02T14:30:08.774Z,1.40
2023-04-02T14:35:25.997Z,1.50
2023-04-02T14:40:34.072Z,1.40
2023-04-02T14:45:48.064Z,2.00
2023-04-02T14:50:55.592Z,1.80
2023-04-02T14:56:01.142Z,3.45
2023-04-02T15:01:07.642Z,2.00
2023-04-02T15:06:20.015Z,2.08
2023-04-02T15:11:26.172Z,2.75
2023-04-02T15:16:28.836Z,1.98
2023-04-02T15:21:57.478Z,1.85
2023-04-02T15:27:24.007Z,2.15
2023-04-02T15:32:38.059Z,1.98
2023-04-02T15:37:51.746Z,1.50
2023-04-02T15:43:00.760Z,1.27
2023-04-02T15:48:29.159Z,1.45
2023-04-02T15:53:45.998Z,1.63
2023-04-02T15:59:24.958Z,1.20
2023-04-02T16:04:40.593Z,1.70
2023-04-02T16:09:54.403Z,1.70
2023-04-02T16:15:06.743Z,1.63
2023-04-02T16:20:19.543Z,1.50
2023-04-02T16:25:28.291Z,2.00
2023-04-02T16:30:42.254Z,2.10
2023-04-02T16:35:55.321Z,1.55
2023-04-02T16:41:10.121Z,1.52
2023-04-02T16:46:38.181Z,1.85
2023-04-02T16:51:46.598Z,1.50
2023-04-02T16:57:04.288Z,1.50
2023-04-02T17:02:20.823Z,1.75
2023-04-02T17:07:34.894Z,1.27
2023-04-02T17:12:45.929Z,1.60
2023-04-02T17:17:46.995Z,1.52
2023-04-02T17:22:48.529Z,1.60
2023-04-02T17:27:55.669Z,2.08
2023-04-02T17:32:56.585Z,1.58
2023-04-02T17:38:08.274Z,2.03
2023-04-02T17:43:26.421Z,1.70
2023-04-02T17:48:33.716Z,1.98
2023-04-02T17:53:45.572Z,2.00
2023-04-02T17:59:16.749Z,4.25
2023-04-02T18:04:34.678Z,2.50
2023-04-02T18:09:46.727Z,2.20
2023-04-02T18:15:03.727Z,2.63
2023-04-02T18:20:17.792Z,2.55
2023-04-02T18:25:33.422Z,2.00
2023-04-02T18:30:40.606Z,2.50
2023-04-02T18:35:53.756Z,2.80
2023-04-02T18:41:06.778Z,3.88
2023-04-02T18:46:22.249Z,3.10
2023-04-02T18:51:25.332Z,2.58
2023-04-02T18:56:27.580Z,1.98
2023-04-02T19:01:35.534Z,3.83
2023-04-02T19:06:40.351Z,2.20
2023-04-02T19:11:42.932Z,2.80
2023-04-02T19:17:04.212Z,3.03
2023-04-02T19:22:31.524Z,2.40
2023-04-02T19:27:40.702Z,2.60
2023-04-02T19:32:48.304Z,3.10
2023-04-02T19:37:59.508Z,3.35
2023-04-02T19:43:00.615Z,2.42
2023-04-02T19:48:10.822Z,2.90
2023-04-02T19:53:11.696Z,2.97
2023-04-02T19:58:23.083Z,2.90
2023-04-02T20:03:25.475Z,2.63
2023-04-02T20:08:26.345Z,2.50
2023-04-02T20:13:27.154Z,2.50
2023-04-02T20:18:29.602Z,2.13
2023-04-02T20:23:30.358Z,1.98
2023-04-02T20:28:31.844Z,2.03
2023-04-02T20:33:33.998Z,1.92
2023-04-02T20:38:35.899Z,2.30
2023-04-02T20:43:40.448Z,2.25
2023-04-02T20:48:42.626Z,2.10
2023-04-02T20:53:43.836Z,2.42
2023-04-02T20:58:47.804Z,2.17
2023-04-02T21:03:50.686Z,1.95
2023-04-02T21:08:51.773Z,1.60
2023-04-02T21:13:52.851Z,2.00
2023-04-02T21:18:55.533Z,2.63
2023-04-02T21:23:58.016Z,1.58
2023-04-02T21:28:58.890Z,5.53
2023-04-02T21:34:01.257Z,1.80
2023-04-02T21:39:03.485Z,1.33
2023-04-02T21:44:06.421Z,1.42
2023-04-02T21:49:09.086Z,1.20
2023-04-02T21:54:10.523Z,1.42
2023-04-02T21:59:13.444Z,1.38
2023-04-02T22:04:18.821Z,1.50
2023-04-02T22:09:21.536Z,2.13
2023-04-02T22:14:22.976Z,1.20
2023-04-02T22:19:25.346Z,2.10
2023-04-02T22:24:27.237Z,1.20
2023-04-02T22:29:29.091Z,1.50
2023-04-02T22:34:31.339Z,0.98
2023-04-02T22:39:32.007Z,1.30
2023-04-02T22:44:32.706Z,1.60
2023-04-02T22:49:34.698Z,2.25
2023-04-02T22:54:35.654Z,1.45
2023-04-02T22:59:36.297Z,1.30
2023-04-02T23:04:38.394Z,1.52
2023-04-02T23:09:39.104Z,1.45
2023-04-02T23:14:39.814Z,1.00
2023-04-02T23:19:41.883Z,1.52
2023-04-02T23:24:42.587Z,1.73
2023-04-02T23:29:43.252Z,1.27
2023-04-02T23:34:45.278Z,1.80
2023-04-02T23:39:46.046Z,1.55
2023-04-02T23:44:46.715Z,1.30
2023-04-02T23:49:48.775Z,1.52
2023-04-02T23:54:49.446Z,1.50
2023-04-02T23:59:50.235Z,1.40
